sensor_id;sensor_type;location;lat;lon;timestamp;pressure;altitude;pressure_sealevel;temperature;humidity
22311;BME280;11323;49.610;11.016;2023-04-08T00:03:47;98339.72;;;13.57;67.59
22311;BME280;11323;49.610;11.016;2023-04-08T00:08:47;98332.03;;;13.56;67.74
22311;BME280;11323;49.610;11.016;2023-04-08T00:13:48;98334.31;;;13.59;67.59
22311;BME280;11323;49.610;11.016;2023-04-08T00:18:48;98345.78;;;13.58;67.86
22311;BME280;11323;49.610;11.016;2023-04-08T00:23:48;98339.88;;;13.56;67.83
22311;BME280;11323;49.610;11.016;2023-04-08T00:28:49;98338.72;;;13.58;67.58
22311;BME280;11323;49.610;11.016;2023-04-08T00:33:49;98341.50;;;13.57;67.92
22311;BME280;11323;49.610;11.016;2023-04-08T00:38:50;98343.16;;;13.58;67.91
22311;BME280;11323;49.610;11.016;2023-04-08T00:43:51;98338.22;;;13.55;67.59
22311;BME280;11323;49.610;11.016;2023-04-08T00:48:53;98345.94;;;13.56;68.02
22311;BME280;11323;49.610;11.016;2023-04-08T00:53:54;98347.06;;;13.54;67.82
22311;BME280;11323;49.610;11.016;2023-04-08T00:58:55;98342.66;;;13.54;68.10
22311;BME280;11323;49.610;11.016;2023-04-08T01:09:00;98357.53;;;13.54;67.82
22311;BME280;11323;49.610;11.016;2023-04-08T01:14:05;98353.94;;;13.55;68.19
22311;BME280;11323;49.610;11.016;2023-04-08T01:19:34;98347.91;;;13.54;68.17
22311;BME280;11323;49.610;11.016;2023-04-08T01:24:35;98357.53;;;13.54;67.64
22311;BME280;11323;49.610;11.016;2023-04-08T01:29:40;98353.28;;;13.53;67.79
22311;BME280;11323;49.610;11.016;2023-04-08T01:34:42;98358.69;;;13.51;68.17
22311;BME280;11323;49.610;11.016;2023-04-08T01:39:45;98351.31;;;13.47;67.98
22311;BME280;11323;49.610;11.016;2023-04-08T01:44:46;98349.84;;;13.52;67.50
22311;BME280;11323;49.610;11.016;2023-04-08T01:49:48;98349.34;;;13.49;68.20
22311;BME280;11323;49.610;11.016;2023-04-08T01:54:49;98349.34;;;13.49;67.99
22311;BME280;11323;49.610;11.016;2023-04-08T01:59:52;98346.56;;;13.50;68.01
22311;BME280;11323;49.610;11.016;2023-04-08T02:04:56;98350.03;;;13.51;67.62
22311;BME280;11323;49.610;11.016;2023-04-08T02:09:57;98353.09;;;13.46;68.01
22311;BME280;11323;49.610;11.016;2023-04-08T02:14:58;98359.66;;;13.50;67.98
22311;BME280;11323;49.610;11.016;2023-04-08T02:20:04;98358.19;;;13.48;67.99
22311;BME280;11323;49.610;11.016;2023-04-08T02:25:09;98362.75;;;13.46;67.55
22311;BME280;11323;49.610;11.016;2023-04-08T02:30:11;98360.94;;;13.46;68.05
22311;BME280;11323;49.610;11.016;2023-04-08T02:35:13;98369.78;;;13.45;67.96
22311;BME280;11323;49.610;11.016;2023-04-08T02:40:31;98370.09;;;13.42;67.83
22311;BME280;11323;49.610;11.016;2023-04-08T02:45:37;98375.03;;;13.45;68.30
22311;BME280;11323;49.610;11.016;2023-04-08T02:50:38;98371.88;;;13.41;68.33
22311;BME280;11323;49.610;11.016;2023-04-08T02:55:39;98369.56;;;13.38;67.89
22311;BME280;11323;49.610;11.016;2023-04-08T03:00:40;98373.69;;;13.41;68.02
22311;BME280;11323;49.610;11.016;2023-04-08T03:05:41;98374.81;;;13.38;67.86
22311;BME280;11323;49.610;11.016;2023-04-08T03:10:41;98378.41;;;13.37;68.15
22311;BME280;11323;49.610;11.016;2023-04-08T03:15:41;98386.94;;;13.39;67.85
22311;BME280;11323;49.610;11.016;2023-04-08T03:20:42;98388.69;;;13.39;67.85
22311;BME280;11323;49.610;11.016;2023-04-08T03:25:42;98376.75;;;13.36;67.88
22311;BME280;11323;49.610;11.016;2023-04-08T03:30:42;98388.69;;;13.39;67.88
22311;BME280;11323;49.610;11.016;2023-04-08T03:35:43;98390.81;;;13.35;68.25
22311;BME280;11323;49.610;11.016;2023-04-08T03:40:43;98383.63;;;13.37;68.06
22311;BME280;11323;49.610;11.016;2023-04-08T03:45:45;98393.94;;;13.39;68.22
22311;BME280;11323;49.610;11.016;2023-04-08T03:50:45;98388.19;;;13.35;68.11
22311;BME280;11323;49.610;11.016;2023-04-08T03:55:48;98384.75;;;13.35;68.10
22311;BME280;11323;49.610;11.016;2023-04-08T04:00:49;98391.63;;;13.36;67.60
22311;BME280;11323;49.610;11.016;2023-04-08T04:05:50;98394.91;;;13.38;68.26
22311;BME280;11323;49.610;11.016;2023-04-08T04:10:51;98404.56;;;13.37;67.81
22311;BME280;11323;49.610;11.016;2023-04-08T04:15:51;98396.22;;;13.34;67.84
22311;BME280;11323;49.610;11.016;2023-04-08T04:20:51;98407.50;;;13.34;67.61
22311;BME280;11323;49.610;11.016;2023-04-08T04:25:52;98409.94;;;13.36;67.70
22311;BME280;11323;49.610;11.016;2023-04-08T04:30:52;98417.00;;;13.35;68.04
22311;BME280;11323;49.610;11.016;2023-04-08T04:35:53;98419.59;;;13.35;67.82
22311;BME280;11323;49.610;11.016;2023-04-08T04:40:53;98415.66;;;13.31;68.00
22311;BME280;11323;49.610;11.016;2023-04-08T04:45:54;98414.97;;;13.29;67.89
22311;BME280;11323;49.610;11.016;2023-04-08T04:50:55;98422.81;;;13.29;68.25
22311;BME280;11323;49.610;11.016;2023-04-08T04:55:56;98428.59;;;13.33;67.47
22311;BME280;11323;49.610;11.016;2023-04-08T05:00:56;98432.19;;;13.32;68.42
22311;BME280;11323;49.610;11.016;2023-04-08T05:05:57;98440.03;;;13.32;67.68
22311;BME280;11323;49.610;11.016;2023-04-08T05:10:57;98436.59;;;13.31;68.14
22311;BME280;11323;49.610;11.016;2023-04-08T05:16:01;98436.91;;;13.28;68.12
22311;BME280;11323;49.610;11.016;2023-04-08T05:21:01;98440.50;;;13.27;67.63
22311;BME280;11323;49.610;11.016;2023-04-08T05:26:02;98444.59;;;13.29;68.21
22311;BME280;11323;49.610;11.016;2023-04-08T05:31:06;98455.88;;;13.30;67.93
22311;BME280;11323;49.610;11.016;2023-04-08T05:36:06;98459.19;;;13.32;67.68
22311;BME280;11323;49.610;11.016;2023-04-08T05:41:06;98464.72;;;13.29;68.22
22311;BME280;11323;49.610;11.016;2023-04-08T05:46:08;98466.06;;;13.33;68.00
22311;BME280;11323;49.610;11.016;2023-04-08T05:51:13;98474.22;;;13.30;67.91
22311;BME280;11323;49.610;11.016;2023-04-08T05:56:14;98463.38;;;13.25;67.64
22311;BME280;11323;49.610;11.016;2023-04-08T06:01:14;98480.41;;;13.29;67.69
22311;BME280;11323;49.610;11.016;2023-04-08T06:06:14;98493.50;;;13.29;67.79
22311;BME280;11323;49.610;11.016;2023-04-08T06:11:15;98493.50;;;13.29;68.16
22311;BME280;11323;49.610;11.016;2023-04-08T06:16:16;98492.84;;;13.27;68.18
22311;BME280;11323;49.610;11.016;2023-04-08T06:21:16;98493.84;;;13.26;68.10
22311;BME280;11323;49.610;11.016;2023-04-08T06:26:17;98490.53;;;13.24;67.93
22311;BME280;11323;49.610;11.016;2023-04-08T06:31:17;98493.84;;;13.26;68.17
22311;BME280;11323;49.610;11.016;2023-04-08T06:36:18;98498.38;;;13.24;68.04
22311;BME280;11323;49.610;11.016;2023-04-08T06:41:18;98517.06;;;13.29;68.14
22311;BME280;11323;49.610;11.016;2023-04-08T06:46:19;98512.38;;;13.33;68.24
22311;BME280;11323;49.610;11.016;2023-04-08T06:51:20;98516.47;;;13.35;68.52
22311;BME280;11323;49.610;11.016;2023-04-08T06:56:20;98514.22;;;13.40;68.81
22311;BME280;11323;49.610;11.016;2023-04-08T07:01:22;98524.09;;;13.47;68.76
22311;BME280;11323;49.610;11.016;2023-04-08T07:06:23;98526.72;;;13.47;68.82
22311;BME280;11323;49.610;11.016;2023-04-08T07:11:24;98520.50;;;13.48;68.71
22311;BME280;11323;49.610;11.016;2023-04-08T07:16:25;98534.94;;;13.52;68.85
22311;BME280;11323;49.610;11.016;2023-04-08T07:21:25;98537.25;;;13.55;68.83
22311;BME280;11323;49.610;11.016;2023-04-08T07:26:26;98545.78;;;13.57;68.92
22311;BME280;11323;49.610;11.016;2023-04-08T07:31:27;98554.31;;;13.59;68.48
22311;BME280;11323;49.610;11.016;2023-04-08T07:36:28;98551.53;;;13.61;68.94
22311;BME280;11323;49.610;11.016;2023-04-08T07:41:28;98561.88;;;13.62;68.68
22311;BME280;11323;49.610;11.016;2023-04-08T07:46:29;98557.59;;;13.61;68.89
22311;BME280;11323;49.610;11.016;2023-04-08T07:51:30;98565.28;;;13.63;68.89
22311;BME280;11323;49.610;11.016;2023-04-08T07:56:31;98575.97;;;13.69;68.31
22311;BME280;11323;49.610;11.016;2023-04-08T08:01:31;98579.56;;;13.68;68.81
22311;BME280;11323;49.610;11.016;2023-04-08T08:06:34;98575.97;;;13.69;68.69
22311;BME280;11323;49.610;11.016;2023-04-08T08:11:34;98578.94;;;13.74;68.85
22311;BME280;11323;49.610;11.016;2023-04-08T08:16:34;98582.22;;;13.77;68.89
22311;BME280;11323;49.610;11.016;2023-04-08T08:21:36;98580.59;;;13.75;69.02
22311;BME280;11323;49.610;11.016;2023-04-08T08:26:36;98585.81;;;13.75;68.83
22311;BME280;11323;49.610;11.016;2023-04-08T08:31:37;98594.06;;;13.81;68.97
22311;BME280;11323;49.610;11.016;2023-04-08T08:36:37;98599.31;;;13.81;68.74
22311;BME280;11323;49.610;11.016;2023-04-08T08:41:37;98596.69;;;13.81;68.96
22311;BME280;11323;49.610;11.016;2023-04-08T08:46:43;98602.59;;;13.83;68.62
22311;BME280;11323;49.610;11.016;2023-04-08T08:51:47;98599.13;;;13.82;68.57
22311;BME280;11323;49.610;11.016;2023-04-08T08:56:48;98597.66;;;13.80;68.80
22311;BME280;11323;49.610;11.016;2023-04-08T09:01:48;98612.75;;;13.86;68.76
22311;BME280;11323;49.610;11.016;2023-04-08T09:07:05;98619.03;;;13.93;68.77
22311;BME280;11323;49.610;11.016;2023-04-08T09:12:07;98623.94;;;13.96;68.29
22311;BME280;11323;49.610;11.016;2023-04-08T09:17:08;98617.72;;;13.97;68.53
22311;BME280;11323;49.610;11.016;2023-04-08T09:22:10;98622.66;;;14.00;68.35
22311;BME280;11323;49.610;11.016;2023-04-08T09:27:11;98616.91;;;13.97;68.21
22311;BME280;11323;49.610;11.016;2023-04-08T09:32:13;98625.28;;;14.00;68.74
22311;BME280;11323;49.610;11.016;2023-04-08T09:37:13;98637.13;;;14.04;68.61
22311;BME280;11323;49.610;11.016;2023-04-08T09:42:14;98643.16;;;14.05;68.39
22311;BME280;11323;49.610;11.016;2023-04-08T09:47:20;98633.00;;;14.02;68.41
22311;BME280;11323;49.610;11.016;2023-04-08T09:52:29;98631.88;;;14.04;68.40
22311;BME280;11323;49.610;11.016;2023-04-08T09:57:54;98633.81;;;14.02;68.46
22311;BME280;11323;49.610;11.016;2023-04-08T10:03:25;98631.88;;;14.04;68.39
22311;BME280;11323;49.610;11.016;2023-04-08T10:08:27;98642.56;;;14.11;68.28
22311;BME280;11323;49.610;11.016;2023-04-08T10:13:28;98636.50;;;14.11;68.50
22311;BME280;11323;49.610;11.016;2023-04-08T10:18:29;98636.88;;;14.16;68.46
22311;BME280;11323;49.610;11.016;2023-04-08T10:23:52;98636.19;;;14.14;68.70
22311;BME280;11323;49.610;11.016;2023-04-08T10:28:53;98638.50;;;14.17;68.18
22311;BME280;11323;49.610;11.016;2023-04-08T10:33:54;98629.69;;;14.18;68.08
22311;BME280;11323;49.610;11.016;2023-04-08T10:38:55;98625.41;;;14.17;68.07
22311;BME280;11323;49.610;11.016;2023-04-08T10:43:56;98616.09;;;14.23;68.40
22311;BME280;11323;49.610;11.016;2023-04-08T10:48:59;98614.28;;;14.23;67.98
22311;BME280;11323;49.610;11.016;2023-04-08T10:54:09;98617.06;;;14.21;68.00
22311;BME280;11323;49.610;11.016;2023-04-08T10:59:12;98621.34;;;14.23;68.44
22311;BME280;11323;49.610;11.016;2023-04-08T11:04:17;98615.94;;;14.24;68.26
22311;BME280;11323;49.610;11.016;2023-04-08T11:09:18;98614.28;;;14.23;68.22
22311;BME280;11323;49.610;11.016;2023-04-08T11:14:19;98623.00;;;14.24;67.80
22311;BME280;11323;49.610;11.016;2023-04-08T11:19:21;98613.47;;;14.23;68.16
22311;BME280;11323;49.610;11.016;2023-04-08T11:24:22;98612.84;;;14.29;68.23
22311;BME280;11323;49.610;11.016;2023-04-08T11:29:23;98629.28;;;14.39;68.03
22311;BME280;11323;49.610;11.016;2023-04-08T11:34:24;98623.22;;;14.39;68.14
22311;BME280;11323;49.610;11.016;2023-04-08T11:39:24;98626.19;;;14.44;68.40
22311;BME280;11323;49.610;11.016;2023-04-08T11:44:31;98623.41;;;14.45;68.42
22311;BME280;11323;49.610;11.016;2023-04-08T11:49:45;98623.56;;;14.44;68.29
22311;BME280;11323;49.610;11.016;2023-04-08T11:54:47;98614.03;;;14.43;68.21
22311;BME280;11323;49.610;11.016;2023-04-08T11:59:47;98628.31;;;14.48;68.28
22311;BME280;11323;49.610;11.016;2023-04-08T12:04:48;98619.66;;;14.48;68.34
22311;BME280;11323;49.610;11.016;2023-04-08T12:09:49;98622.28;;;14.48;68.27
22311;BME280;11323;49.610;11.016;2023-04-08T12:14:49;98625.06;;;14.46;67.88
22311;BME280;11323;49.610;11.016;2023-04-08T12:19:49;98629.16;;;14.49;67.78
22311;BME280;11323;49.610;11.016;2023-04-08T12:24:50;98631.13;;;14.47;67.85
22311;BME280;11323;49.610;11.016;2023-04-08T12:29:50;98627.00;;;14.44;67.96
22311;BME280;11323;49.610;11.016;2023-04-08T12:34:52;98627.31;;;14.41;67.88
22311;BME280;11323;49.610;11.016;2023-04-08T12:39:52;98641.59;;;14.47;68.05
22311;BME280;11323;49.610;11.016;2023-04-08T12:44:53;98632.25;;;14.44;67.78
22311;BME280;11323;49.610;11.016;2023-04-08T12:49:53;98624.88;;;14.40;68.21
22311;BME280;11323;49.610;11.016;2023-04-08T12:54:54;98638.34;;;14.53;67.72
22311;BME280;11323;49.610;11.016;2023-04-08T12:59:54;98637.41;;;14.62;67.91
22311;BME280;11323;49.610;11.016;2023-04-08T13:04:55;98624.16;;;14.29;64.68
22311;BME280;11323;49.610;11.016;2023-04-08T13:09:55;98631.56;;;14.08;59.96
22311;BME280;11323;49.610;11.016;2023-04-08T13:14:56;98629.81;;;13.90;58.91
22311;BME280;11323;49.610;11.016;2023-04-08T13:19:57;98630.63;;;13.90;58.56
22311;BME280;11323;49.610;11.016;2023-04-08T13:24:57;98625.78;;;13.78;56.85
22311;BME280;11323;49.610;11.016;2023-04-08T13:29:58;98640.56;;;13.61;58.00
22311;BME280;11323;49.610;11.016;2023-04-08T13:34:58;98640.97;;;13.92;60.44
22311;BME280;11323;49.610;11.016;2023-04-08T13:39:59;98643.09;;;14.15;61.84
22311;BME280;11323;49.610;11.016;2023-04-08T13:44:59;98636.59;;;14.27;62.97
22311;BME280;11323;49.610;11.016;2023-04-08T13:50:00;98630.72;;;14.33;63.71
22311;BME280;11323;49.610;11.016;2023-04-08T13:55:00;98633.38;;;14.42;63.93
22311;BME280;11323;49.610;11.016;2023-04-08T14:00:01;98626.38;;;14.50;64.75
22311;BME280;11323;49.610;11.016;2023-04-08T14:05:01;98627.53;;;14.56;65.01
22311;BME280;11323;49.610;11.016;2023-04-08T14:10:02;98606.38;;;14.49;65.47
22311;BME280;11323;49.610;11.016;2023-04-08T14:15:02;98627.06;;;14.61;65.41
22311;BME280;11323;49.610;11.016;2023-04-08T14:20:03;98625.63;;;14.66;65.75
22311;BME280;11323;49.610;11.016;2023-04-08T14:25:05;98625.16;;;14.71;66.00
22311;BME280;11323;49.610;11.016;2023-04-08T14:30:06;98632.22;;;14.71;65.41
22311;BME280;11323;49.610;11.016;2023-04-08T14:35:07;98630.59;;;14.70;65.52
22311;BME280;11323;49.610;11.016;2023-04-08T14:40:08;98632.72;;;14.74;65.55
22311;BME280;11323;49.610;11.016;2023-04-08T14:45:10;98635.84;;;14.78;65.51
22311;BME280;11323;49.610;11.016;2023-04-08T14:50:10;98634.88;;;14.79;65.34
22311;BME280;11323;49.610;11.016;2023-04-08T14:55:10;98631.56;;;14.77;65.41
22311;BME280;11323;49.610;11.016;2023-04-08T15:00:11;98633.22;;;14.78;65.40
22311;BME280;11323;49.610;11.016;2023-04-08T15:05:12;98638.47;;;14.78;65.45
22311;BME280;11323;49.610;11.016;2023-04-08T15:10:12;98636.81;;;14.77;65.64
22311;BME280;11323;49.610;11.016;2023-04-08T15:15:13;98647.00;;;14.80;65.59
22311;BME280;11323;49.610;11.016;2023-04-08T15:20:13;98647.00;;;14.80;65.66
22311;BME280;11323;49.610;11.016;2023-04-08T15:25:13;98645.69;;;14.76;65.82
22311;BME280;11323;49.610;11.016;2023-04-08T15:30:14;98654.22;;;14.78;65.36
22311;BME280;11323;49.610;11.016;2023-04-08T15:35:16;98660.31;;;14.78;65.45
22311;BME280;11323;49.610;11.016;2023-04-08T15:40:16;98666.66;;;14.76;65.35
22311;BME280;11323;49.610;11.016;2023-04-08T15:45:17;98658.16;;;14.74;65.59
22311;BME280;11323;49.610;11.016;2023-04-08T15:50:17;98663.06;;;14.77;65.58
22311;BME280;11323;49.610;11.016;2023-04-08T15:55:18;98659.81;;;14.75;65.56
22311;BME280;11323;49.610;11.016;2023-04-08T16:00:18;98668.97;;;14.79;65.63
22311;BME280;11323;49.610;11.016;2023-04-08T16:05:18;98674.22;;;14.79;65.80
22311;BME280;11323;49.610;11.016;2023-04-08T16:10:19;98675.22;;;14.78;65.85
22311;BME280;11323;49.610;11.016;2023-04-08T16:15:19;98680.44;;;14.78;65.80
22311;BME280;11323;49.610;11.016;2023-04-08T16:20:20;98691.63;;;14.80;65.66
22311;BME280;11323;49.610;11.016;2023-04-08T16:25:20;98689.00;;;14.80;65.71
22311;BME280;11323;49.610;11.016;2023-04-08T16:30:21;98701.13;;;14.81;65.83
22311;BME280;11323;49.610;11.016;2023-04-08T16:35:21;98703.94;;;14.79;65.68
22311;BME280;11323;49.610;11.016;2023-04-08T16:40:21;98710.81;;;14.80;65.63
22311;BME280;11323;49.610;11.016;2023-04-08T16:45:22;98725.72;;;14.80;65.71
22311;BME280;11323;49.610;11.016;2023-04-08T16:50:22;98728.34;;;14.80;65.70
22311;BME280;11323;49.610;11.016;2023-04-08T16:55:23;98711.59;;;14.73;65.62
22311;BME280;11323;49.610;11.016;2023-04-08T17:00:23;98726.03;;;14.77;65.59
22311;BME280;11323;49.610;11.016;2023-04-08T17:05:24;98730.97;;;14.80;66.07
22311;BME280;11323;49.610;11.016;2023-04-08T17:10:25;98737.38;;;14.77;65.90
22311;BME280;11323;49.610;11.016;2023-04-08T17:15:25;98748.38;;;14.81;65.71
22311;BME280;11323;49.610;11.016;2023-04-08T17:20:26;98750.31;;;14.79;65.69
22311;BME280;11323;49.610;11.016;2023-04-08T17:25:26;98754.75;;;14.78;65.87
22311;BME280;11323;49.610;11.016;2023-04-08T17:30:27;98754.59;;;14.80;65.95
22311;BME280;11323;49.610;11.016;2023-04-08T17:35:27;98754.91;;;14.77;66.09
22311;BME280;11323;49.610;11.016;2023-04-08T17:40:28;98766.06;;;14.79;66.00
22311;BME280;11323;49.610;11.016;2023-04-08T17:45:29;98767.88;;;14.78;66.24
22311;BME280;11323;49.610;11.016;2023-04-08T17:50:30;98765.41;;;14.77;65.94
22311;BME280;11323;49.610;11.016;2023-04-08T17:55:30;98774.91;;;14.78;66.10
22311;BME280;11323;49.610;11.016;2023-04-08T18:00:30;98773.59;;;14.74;66.03
22311;BME280;11323;49.610;11.016;2023-04-08T18:05:31;98778.50;;;14.77;66.13
22311;BME280;11323;49.610;11.016;2023-04-08T18:10:31;98787.06;;;14.79;66.18
22311;BME280;11323;49.610;11.016;2023-04-08T18:15:35;98792.00;;;14.82;66.22
22311;BME280;11323;49.610;11.016;2023-04-08T18:20:36;98801.19;;;14.86;66.32
22311;BME280;11323;49.610;11.016;2023-04-08T18:25:36;98803.81;;;14.86;66.44
22311;BME280;11323;49.610;11.016;2023-04-08T18:30:37;98814.31;;;14.86;66.30
22311;BME280;11323;49.610;11.016;2023-04-08T18:35:37;98834.34;;;14.87;66.24
22311;BME280;11323;49.610;11.016;2023-04-08T18:40:37;98833.34;;;14.88;66.09
22311;BME280;11323;49.610;11.016;2023-04-08T18:45:41;98828.78;;;14.90;66.82
22311;BME280;11323;49.610;11.016;2023-04-08T18:50:42;98832.75;;;14.94;67.10
22311;BME280;11323;49.610;11.016;2023-04-08T18:55:43;98839.31;;;14.98;67.48
22311;BME280;11323;49.610;11.016;2023-04-08T19:00:44;98847.06;;;15.00;67.52
22311;BME280;11323;49.610;11.016;2023-04-08T19:05:44;98844.28;;;15.02;67.41
22311;BME280;11323;49.610;11.016;2023-04-08T19:10:45;98856.41;;;15.03;67.39
22311;BME280;11323;49.610;11.016;2023-04-08T19:15:46;98865.63;;;15.07;67.13
22311;BME280;11323;49.610;11.016;2023-04-08T19:20:46;98861.03;;;15.09;67.52
22311;BME280;11323;49.610;11.016;2023-04-08T19:25:47;98858.94;;;15.12;67.43
22311;BME280;11323;49.610;11.016;2023-04-08T19:30:47;98857.13;;;15.13;67.38
22311;BME280;11323;49.610;11.016;2023-04-08T19:35:48;98867.31;;;15.16;67.30
22311;BME280;11323;49.610;11.016;2023-04-08T19:40:48;98876.19;;;15.15;67.43
22311;BME280;11323;49.610;11.016;2023-04-08T19:45:56;98868.97;;;15.17;67.64
22311;BME280;11323;49.610;11.016;2023-04-08T19:50:57;98875.03;;;15.18;67.60
22311;BME280;11323;49.610;11.016;2023-04-08T19:56:01;98883.59;;;15.20;67.76
22311;BME280;11323;49.610;11.016;2023-04-08T20:01:02;98877.84;;;15.16;67.53
22311;BME280;11323;49.610;11.016;2023-04-08T20:06:03;98877.53;;;15.19;67.20
22311;BME280;11323;49.610;11.016;2023-04-08T20:11:03;98886.69;;;15.15;66.59
22311;BME280;11323;49.610;11.016;2023-04-08T20:16:04;98890.28;;;15.14;66.64
22311;BME280;11323;49.610;11.016;2023-04-08T20:21:04;98889.78;;;15.10;66.49
22311;BME280;11323;49.610;11.016;2023-04-08T20:26:06;98892.53;;;15.09;66.40
22311;BME280;11323;49.610;11.016;2023-04-08T20:31:06;98884.81;;;15.07;66.39
22311;BME280;11323;49.610;11.016;2023-04-08T20:36:09;98887.63;;;15.06;66.38
22311;BME280;11323;49.610;11.016;2023-04-08T20:41:16;98890.72;;;15.01;66.40
22311;BME280;11323;49.610;11.016;2023-04-08T20:46:17;98885.47;;;15.01;66.46
22311;BME280;11323;49.610;11.016;2023-04-08T20:51:17;98888.22;;;15.00;66.41
22311;BME280;11323;49.610;11.016;2023-04-08T20:56:18;98885.25;;;14.94;66.19
22311;BME280;11323;49.610;11.016;2023-04-08T21:01:18;98888.22;;;15.00;66.58
22311;BME280;11323;49.610;11.016;2023-04-08T21:06:19;98891.31;;;14.95;66.38
22311;BME280;11323;49.610;11.016;2023-04-08T21:11:20;98893.25;;;14.93;66.40
22311;BME280;11323;49.610;11.016;2023-04-08T21:16:21;98902.25;;;14.90;66.54
22311;BME280;11323;49.610;11.016;2023-04-08T21:21:21;98895.03;;;14.84;66.47
22311;BME280;11323;49.610;11.016;2023-04-08T21:26:21;98903.53;;;14.86;66.59
22311;BME280;11323;49.610;11.016;2023-04-08T21:31:22;98900.91;;;14.86;66.62
22311;BME280;11323;49.610;11.016;2023-04-08T21:36:22;98907.81;;;14.87;66.48
22311;BME280;11323;49.610;11.016;2023-04-08T21:41:23;98907.47;;;14.82;66.62
22311;BME280;11323;49.610;11.016;2023-04-08T21:46:23;98900.88;;;14.78;66.56
22311;BME280;11323;49.610;11.016;2023-04-08T21:51:24;98909.41;;;14.80;66.38
22311;BME280;11323;49.610;11.016;2023-04-08T21:56:25;98907.75;;;14.79;66.64
22311;BME280;11323;49.610;11.016;2023-04-08T22:01:26;98899.53;;;14.74;66.41
22311;BME280;11323;49.610;11.016;2023-04-08T22:06:27;98909.72;;;14.77;66.60
22311;BME280;11323;49.610;11.016;2023-04-08T22:11:27;98899.53;;;14.74;66.64
22311;BME280;11323;49.610;11.016;2023-04-08T22:16:27;98900.81;;;14.70;66.43
22311;BME280;11323;49.610;11.016;2023-04-08T22:21:28;98896.53;;;14.69;66.53
22311;BME280;11323;49.610;11.016;2023-04-08T22:26:28;98897.50;;;14.67;66.29
22311;BME280;11323;49.610;11.016;2023-04-08T22:31:29;98896.81;;;14.65;66.41
22311;BME280;11323;49.610;11.016;2023-04-08T22:36:29;98898.91;;;14.62;66.53
22311;BME280;11323;49.610;11.016;2023-04-08T22:41:30;98899.75;;;14.62;66.59
22311;BME280;11323;49.610;11.016;2023-04-08T22:46:30;98902.50;;;14.61;66.50
22311;BME280;11323;49.610;11.016;2023-04-08T22:51:31;98896.56;;;14.59;67.03
22311;BME280;11323;49.610;11.016;2023-04-08T22:56:31;98905.97;;;14.61;66.53
22311;BME280;11323;49.610;11.016;2023-04-08T23:01:32;98897.41;;;14.59;66.45
22311;BME280;11323;49.610;11.016;2023-04-08T23:06:32;98893.81;;;14.60;66.39
22311;BME280;11323;49.610;11.016;2023-04-08T23:11:33;98902.66;;;14.59;66.45
22311;BME280;11323;49.610;11.016;2023-04-08T23:16:33;98898.69;;;14.55;66.67
22311;BME280;11323;49.610;11.016;2023-04-08T23:21:34;98901.81;;;14.59;66.54
22311;BME280;11323;49.610;11.016;2023-04-08T23:26:35;98901.31;;;14.55;66.46
22311;BME280;11323;49.610;11.016;2023-04-08T23:31:35;98899.38;;;14.57;66.78
22311;BME280;11323;49.610;11.016;2023-04-08T23:36:36;98901.97;;;14.57;66.96
22311;BME280;11323;49.610;11.016;2023-04-08T23:41:36;98889.50;;;14.51;66.44
22311;BME280;11323;49.610;11.016;2023-04-08T23:46:36;98898.84;;;14.54;66.60
22311;BME280;11323;49.610;11.016;2023-04-08T23:51:37;98895.72;;;14.50;66.48
22311;BME280;11323;49.610;11.016;2023-04-08T23:56:39;98894.72;;;14.51;66.41
